createdAt,value
2022-08-08T00:01:19.781Z,60.47
2022-08-08T00:04:25.405Z,60.13
2022-08-08T00:07:20.252Z,61.17
2022-08-08T00:09:58.947Z,61.06
2022-08-08T00:12:31.669Z,61.01
2022-08-08T00:15:12.938Z,61.42
2022-08-08T00:18:03.307Z,62.15
2022-08-08T00:20:50.493Z,61.64
2022-08-08T00:23:47.801Z,61.76
2022-08-08T00:26:29.737Z,62.02
2022-08-08T00:29:07.896Z,61.60
2022-08-08T00:32:20.751Z,62.43
2022-08-08T00:35:07.444Z,63.19
2022-08-08T00:38:02.812Z,62.45
2022-08-08T00:41:12.596Z,62.55
2022-08-08T00:43:58.992Z,62.60
2022-08-08T00:47:01.684Z,62.88
2022-08-08T00:49:59.690Z,61.75
2022-08-08T00:52:48.802Z,62.01
2022-08-08T00:56:11.264Z,61.94
2022-08-08T00:59:13.802Z,62.08
2022-08-08T01:01:50.131Z,62.39
2022-08-08T01:04:57.169Z,62.64
2022-08-08T01:07:55.666Z,62.21
2022-08-08T01:10:37.374Z,62.48
2022-08-08T01:13:43.685Z,62.27
2022-08-08T01:16:27.865Z,62.19
2022-08-08T01:19:52.481Z,61.78
2022-08-08T01:23:00.373Z,62.28
2022-08-08T01:25:56.361Z,62.27
2022-08-08T01:28:51.699Z,62.64
2022-08-08T01:32:13.819Z,62.77
2022-08-08T01:35:01.363Z,62.10
2022-08-08T01:38:12.872Z,62.21
2022-08-08T01:40:56.767Z,62.45
2022-08-08T01:43:40.523Z,62.87
2022-08-08T01:46:12.127Z,62.21
2022-08-08T01:49:03.223Z,62.62
2022-08-08T01:52:04.752Z,62.85
2022-08-08T01:55:19.405Z,62.62
2022-08-08T01:58:12.973Z,63.04
2022-08-08T02:01:00.243Z,64.07
2022-08-08T02:03:56.211Z,63.43
2022-08-08T02:06:43.481Z,62.78
2022-08-08T02:10:04.018Z,62.97
2022-08-08T02:12:42.787Z,63.02
2022-08-08T02:15:34.747Z,62.76
2022-08-08T02:18:26.699Z,63.08
2022-08-08T02:21:35.178Z,63.04
2022-08-08T02:24:17.627Z,62.79
2022-08-08T02:27:03.598Z,62.68
2022-08-08T02:29:46.757Z,62.94
2022-08-08T02:32:32.181Z,62.68
2022-08-08T02:35:31.228Z,62.58
2022-08-08T02:38:42.075Z,62.31
2022-08-08T02:42:07.834Z,61.91
2022-08-08T02:45:09.610Z,62.21
2022-08-08T02:48:06.799Z,62.11
2022-08-08T02:50:56.143Z,62.52
2022-08-08T02:53:47.470Z,62.51
2022-08-08T02:56:42.436Z,61.35
2022-08-08T02:59:58.181Z,60.99
2022-08-08T03:03:09.777Z,61.39
2022-08-08T03:06:03.965Z,61.07
2022-08-08T03:09:04.989Z,60.70
2022-08-08T03:12:08.055Z,60.68
2022-08-08T03:16:02.228Z,61.09
2022-08-08T03:18:04.833Z,61.70
2022-08-08T03:20:52.091Z,61.94
2022-08-08T03:23:30.455Z,62.03
2022-08-08T03:26:07.478Z,62.11
2022-08-08T03:28:46.039Z,61.65
2022-08-08T03:32:06.978Z,61.43
2022-08-08T03:34:32.068Z,60.89
2022-08-08T03:36:58.639Z,60.73
2022-08-08T03:39:25.766Z,60.71
2022-08-08T03:42:27.198Z,60.65
2022-08-08T03:44:41.038Z,60.82
2022-08-08T03:47:22.070Z,61.25
2022-08-08T03:49:59.680Z,61.23
2022-08-08T03:52:33.732Z,61.32
2022-08-08T03:55:09.590Z,60.83
2022-08-08T03:58:31.181Z,60.64
2022-08-08T04:00:30.905Z,60.98
2022-08-08T04:03:11.463Z,61.30
2022-08-08T04:05:47.311Z,61.31
2022-08-08T04:08:32.794Z,61.44
2022-08-08T04:11:03.304Z,61.25
2022-08-08T04:14:03.943Z,61.31
2022-08-08T04:16:38.364Z,60.99
2022-08-08T04:19:23.387Z,61.06
2022-08-08T04:21:54.347Z,61.05
2022-08-08T04:24:29.813Z,60.84
2022-08-08T04:27:00.817Z,60.89
2022-08-08T04:29:33.361Z,60.86
2022-08-08T04:32:06.855Z,60.86
2022-08-08T04:34:49.508Z,60.54
2022-08-08T04:37:21.194Z,60.43
2022-08-08T04:40:04.933Z,60.58
2022-08-08T04:42:37.173Z,60.82
2022-08-08T04:45:05.760Z,60.69
2022-08-08T04:47:36.788Z,61.11
2022-08-08T04:50:23.615Z,61.06
2022-08-08T04:52:58.652Z,60.87
2022-08-08T04:55:37.929Z,60.73
2022-08-08T04:58:17.576Z,61.05
2022-08-08T05:00:48.348Z,60.84
2022-08-08T05:04:06.477Z,61.19
2022-08-08T05:06:12.625Z,61.56
2022-08-08T05:08:51.930Z,61.35
2022-08-08T05:11:24.447Z,61.55
2022-08-08T05:14:01.256Z,61.34
2022-08-08T05:16:53.189Z,61.27
2022-08-08T05:20:10.051Z,60.72
2022-08-08T05:22:08.230Z,60.74
2022-08-08T05:24:38.951Z,60.20
2022-08-08T05:27:07.788Z,60.74
2022-08-08T05:29:37.194Z,60.67
2022-08-08T05:32:08.379Z,60.33
2022-08-08T05:34:41.671Z,60.44
2022-08-08T05:37:17.382Z,61.01
2022-08-08T05:39:55.473Z,60.54
2022-08-08T05:42:34.668Z,60.64
2022-08-08T05:45:24.564Z,61.33
2022-08-08T05:47:59.968Z,61.29
2022-08-08T05:50:29.606Z,61.30
2022-08-08T05:52:56.613Z,61.28
2022-08-08T05:55:25.535Z,61.08
2022-08-08T05:58:05.335Z,60.57
2022-08-08T06:00:35.078Z,60.06
2022-08-08T06:03:17.243Z,60.14
2022-08-08T06:05:59.208Z,60.28
2022-08-08T06:08:36.192Z,60.00
2022-08-08T06:11:08.530Z,59.90
2022-08-08T06:13:47.538Z,59.43
2022-08-08T06:16:25.072Z,59.39
2022-08-08T06:19:05.695Z,59.38
2022-08-08T06:21:51.123Z,59.89
2022-08-08T06:24:30.770Z,59.07
2022-08-08T06:27:06.441Z,59.17
2022-08-08T06:30:00.132Z,59.13
2022-08-08T06:32:37.165Z,59.43
2022-08-08T06:36:00.799Z,58.55
2022-08-08T06:38:09.452Z,58.51
2022-08-08T06:40:48.427Z,58.20
2022-08-08T06:43:28.656Z,58.52
2022-08-08T06:46:04.047Z,58.48
2022-08-08T06:48:30.800Z,58.47
2022-08-08T06:51:00.352Z,59.30
2022-08-08T06:53:39.359Z,59.77
2022-08-08T06:56:09.227Z,60.81
2022-08-08T06:58:36.859Z,61.52
2022-08-08T07:01:52.201Z,61.75
2022-08-08T07:04:40.634Z,61.89
2022-08-08T07:07:12.493Z,60.69
2022-08-08T07:09:59.400Z,60.41
2022-08-08T07:12:42.803Z,60.14
2022-08-08T07:15:23.074Z,59.57
2022-08-08T07:18:34.557Z,58.74
2022-08-08T07:20:57.354Z,58.45
2022-08-08T07:24:01.960Z,57.97
2022-08-08T07:26:29.068Z,57.43
2022-08-08T07:29:05.687Z,57.22
2022-08-08T07:31:36.065Z,56.87
2022-08-08T07:34:08.831Z,56.28
2022-08-08T07:36:41.934Z,56.46
2022-08-08T07:39:22.505Z,55.95
2022-08-08T07:42:03.715Z,55.26
2022-08-08T07:44:40.444Z,55.15
2022-08-08T07:47:11.663Z,54.55
2022-08-08T07:49:40.456Z,54.69
2022-08-08T07:52:13.291Z,54.71
2022-08-08T07:54:57.568Z,54.26
2022-08-08T07:57:36.113Z,54.17
2022-08-08T08:00:16.619Z,53.65
2022-08-08T08:03:20.547Z,53.47
2022-08-08T08:05:53.301Z,53.46
2022-08-08T08:08:36.044Z,53.25
2022-08-08T08:11:03.763Z,52.97
2022-08-08T08:14:08.481Z,53.06
2022-08-08T08:16:40.952Z,53.15
2022-08-08T08:19:10.630Z,52.70
2022-08-08T08:21:57.274Z,51.47
2022-08-08T08:24:35.146Z,51.71
2022-08-08T08:27:03.688Z,51.55
2022-08-08T08:29:31.093Z,50.81
2022-08-08T08:32:03.284Z,51.03
2022-08-08T08:34:33.729Z,50.75
2022-08-08T08:37:07.549Z,48.35
2022-08-08T08:39:59.403Z,48.10
2022-08-08T08:42:29.169Z,48.63
2022-08-08T08:45:01.039Z,48.51
2022-08-08T08:47:33.798Z,48.58
2022-08-08T08:50:17.144Z,48.27
2022-08-08T08:53:04.961Z,47.64
2022-08-08T08:55:49.529Z,47.03
2022-08-08T08:58:37.902Z,46.84
2022-08-08T09:01:09.765Z,46.76
2022-08-08T09:03:50.994Z,46.58
2022-08-08T09:06:33.944Z,45.05
2022-08-08T09:09:25.977Z,45.79
2022-08-08T09:12:08.139Z,46.83
2022-08-08T09:14:42.565Z,45.96
2022-08-08T09:17:19.129Z,45.35
2022-08-08T09:21:57.060Z,45.32
2022-08-08T09:22:40.123Z,45.91
2022-08-08T09:25:09.809Z,45.68
2022-08-08T09:27:42.042Z,45.80
2022-08-08T09:30:25.980Z,45.23
2022-08-08T09:33:54.550Z,45.51
2022-08-08T09:35:49.023Z,44.98
2022-08-08T09:38:52.008Z,45.44
2022-08-08T09:41:54.814Z,44.63
2022-08-08T09:44:34.654Z,45.04
2022-08-08T09:47:35.454Z,44.87
2022-08-08T09:50:04.779Z,43.75
2022-08-08T09:52:56.417Z,43.58
2022-08-08T09:56:03.100Z,44.25
2022-08-08T09:58:25.926Z,43.65
2022-08-08T10:01:14.274Z,42.85
2022-08-08T10:03:42.499Z,41.94
2022-08-08T10:06:17.662Z,42.41
2022-08-08T10:08:46.842Z,41.48
2022-08-08T10:12:26.037Z,40.33
2022-08-08T10:14:27.614Z,39.84
2022-08-08T10:16:55.768Z,39.10
2022-08-08T10:19:45.857Z,38.10
2022-08-08T10:22:19.351Z,36.47
2022-08-08T10:24:48.734Z,37.08
2022-08-08T10:27:23.685Z,37.23
2022-08-08T10:30:01.340Z,37.07
2022-08-08T10:32:39.060Z,35.33
2022-08-08T10:35:20.377Z,36.20
2022-08-08T10:38:07.988Z,35.87
2022-08-08T10:40:38.141Z,36.80
2022-08-08T10:43:06.779Z,35.76
2022-08-08T10:45:57.236Z,35.11
2022-08-08T10:48:35.933Z,36.27
2022-08-08T10:51:14.925Z,33.00
2022-08-08T10:53:58.087Z,32.50
2022-08-08T10:56:31.992Z,32.36
2022-08-08T10:59:09.399Z,32.29
2022-08-08T11:01:39.306Z,32.23
2022-08-08T11:04:10.396Z,31.57
2022-08-08T11:06:41.719Z,31.03
2022-08-08T11:09:19.261Z,30.20
2022-08-08T11:12:05.864Z,30.65
2022-08-08T11:14:33.604Z,30.41
2022-08-08T11:17:02.766Z,29.99
2022-08-08T11:19:33.617Z,30.06
2022-08-08T11:22:04.151Z,29.95
2022-08-08T11:24:35.823Z,29.77
2022-08-08T11:27:10.480Z,29.16
2022-08-08T11:29:58.022Z,29.68
2022-08-08T11:32:41.201Z,27.90
2022-08-08T11:35:25.013Z,27.67
2022-08-08T11:38:35.860Z,27.33
2022-08-08T11:40:46.452Z,27.31
2022-08-08T11:43:17.741Z,27.09
2022-08-08T11:46:09.165Z,27.14
2022-08-08T11:48:35.580Z,27.00
2022-08-08T11:51:30.010Z,27.45
2022-08-08T11:53:59.147Z,27.79
2022-08-08T11:56:34.610Z,27.89
2022-08-08T11:59:09.497Z,26.85
2022-08-08T12:01:37.107Z,27.71
2022-08-08T12:04:06.818Z,28.07
2022-08-08T12:06:34.013Z,27.04
2022-08-08T12:09:09.974Z,27.16
2022-08-08T12:11:44.094Z,26.77
2022-08-08T12:14:22.288Z,26.08
2022-08-08T12:16:52.482Z,25.80
2022-08-08T12:19:37.405Z,26.33
2022-08-08T12:22:13.288Z,25.80
2022-08-08T12:24:53.971Z,25.62
2022-08-08T12:27:26.454Z,25.13
2022-08-08T12:29:59.051Z,25.72
2022-08-08T12:32:26.192Z,25.20
2022-08-08T12:35:13.556Z,25.50
2022-08-08T12:37:48.127Z,25.46
2022-08-08T12:40:54.836Z,24.50
2022-08-08T12:43:32.742Z,24.67
2022-08-08T12:46:19.260Z,24.30
2022-08-08T12:49:22.246Z,24.42
2022-08-08T12:51:49.620Z,23.65
2022-08-08T12:54:36.663Z,24.71
2022-08-08T12:57:21.185Z,24.49
2022-08-08T13:00:04.877Z,24.64
2022-08-08T13:02:42.012Z,24.80
2022-08-08T13:05:26.791Z,24.01
2022-08-08T13:08:20.501Z,23.70
2022-08-08T13:10:56.536Z,23.56
2022-08-08T13:13:34.882Z,22.63
2022-08-08T13:16:25.461Z,21.99
2022-08-08T13:19:00.405Z,19.18
2022-08-08T13:21:36.559Z,15.33
2022-08-08T13:24:18.402Z,14.32
2022-08-08T13:27:20.018Z,15.12
2022-08-08T13:29:50.314Z,15.24
2022-08-08T13:32:17.263Z,15.24
2022-08-08T13:34:52.877Z,15.23
2022-08-08T13:37:27.874Z,16.72
2022-08-08T13:40:07.403Z,16.77
2022-08-08T13:42:34.562Z,16.77
2022-08-08T13:45:02.229Z,16.56
2022-08-08T13:47:31.421Z,15.27
2022-08-08T13:50:36.487Z,16.76
2022-08-08T13:52:48.253Z,16.24
2022-08-08T13:55:28.797Z,18.05
2022-08-08T13:58:07.754Z,17.41
2022-08-08T14:00:45.268Z,17.31
2022-08-08T14:03:47.064Z,17.28
2022-08-08T14:06:09.444Z,18.35
2022-08-08T14:08:57.422Z,17.76
2022-08-08T14:11:27.913Z,18.44
2022-08-08T14:13:59.553Z,18.33
2022-08-08T14:16:27.654Z,18.06
2022-08-08T14:18:56.172Z,17.83
2022-08-08T14:21:39.699Z,17.84
2022-08-08T14:24:08.876Z,18.58
2022-08-08T14:26:46.424Z,18.81
2022-08-08T14:29:28.399Z,18.82
2022-08-08T14:32:09.885Z,18.83
2022-08-08T14:34:43.524Z,18.84
2022-08-08T14:37:16.417Z,19.20
2022-08-08T14:40:05.780Z,18.30
2022-08-08T14:42:37.087Z,18.63
2022-08-08T14:45:33.146Z,17.67
2022-08-08T14:48:17.674Z,17.73
2022-08-08T14:51:06.474Z,17.77
2022-08-08T14:53:55.859Z,18.16
2022-08-08T14:56:25.138Z,17.50
2022-08-08T14:58:52.457Z,17.30
2022-08-08T15:01:37.627Z,16.91
2022-08-08T15:04:09.521Z,17.39
2022-08-08T15:06:36.297Z,17.33
2022-08-08T15:09:04.314Z,17.41
2022-08-08T15:11:36.475Z,17.51
2022-08-08T15:14:13.675Z,16.65
2022-08-08T15:16:42.634Z,17.26
2022-08-08T15:19:11.315Z,17.23
2022-08-08T15:21:42.878Z,16.92
2022-08-08T15:24:14.052Z,16.73
2022-08-08T15:26:46.618Z,17.13
2022-08-08T15:29:19.156Z,15.96
2022-08-08T15:32:17.863Z,15.33
2022-08-08T15:34:36.564Z,15.81
2022-08-08T15:37:06.113Z,15.74
2022-08-08T15:39:38.444Z,15.84
2022-08-08T15:42:10.415Z,15.53
2022-08-08T15:44:42.281Z,15.23
2022-08-08T15:47:15.908Z,16.26
2022-08-08T15:49:47.829Z,16.45
2022-08-08T15:52:15.924Z,16.52
2022-08-08T15:54:46.246Z,16.10
2022-08-08T15:57:15.660Z,16.18
2022-08-08T16:00:05.837Z,15.43
2022-08-08T16:02:44.151Z,15.83
2022-08-08T16:05:17.637Z,15.36
2022-08-08T16:07:52.505Z,14.95
2022-08-08T16:13:11.640Z,15.06
2022-08-08T16:13:34.313Z,16.57
2022-08-08T16:15:58.267Z,16.13
2022-08-08T16:18:32.106Z,15.25
2022-08-08T16:21:00.454Z,15.93
2022-08-08T16:23:32.521Z,15.95
2022-08-08T16:26:04.340Z,15.92
2022-08-08T16:28:33.979Z,15.27
2022-08-08T16:31:03.248Z,15.64
2022-08-08T16:33:38.667Z,15.61
2022-08-08T16:36:08.586Z,15.58
2022-08-08T16:38:40.497Z,15.72
2022-08-08T16:41:11.977Z,15.49
2022-08-08T16:43:51.089Z,14.78
2022-08-08T16:46:43.005Z,15.42
2022-08-08T16:49:09.029Z,15.29
2022-08-08T16:55:00.740Z,15.45
2022-08-08T16:55:01.328Z,15.82
2022-08-08T16:57:22.752Z,15.71
2022-08-08T17:00:01.212Z,14.98
2022-08-08T17:02:39.552Z,15.95
2022-08-08T17:05:08.277Z,16.39
2022-08-08T17:07:37.804Z,16.60
2022-08-08T17:10:08.763Z,16.71
2022-08-08T17:12:36.589Z,17.55
2022-08-08T17:15:17.997Z,18.36
2022-08-08T17:18:02.564Z,18.34
2022-08-08T17:20:39.744Z,18.72
2022-08-08T17:23:18.381Z,20.00
2022-08-08T17:25:54.936Z,20.86
2022-08-08T17:28:34.289Z,21.11
2022-08-08T17:31:39.473Z,20.88
2022-08-08T17:34:49.251Z,21.47
2022-08-08T17:37:00.488Z,21.81
2022-08-08T17:40:03.850Z,22.00
2022-08-08T17:42:18.395Z,22.04
2022-08-08T17:44:46.611Z,22.60
2022-08-08T17:47:27.416Z,22.77
2022-08-08T17:50:02.620Z,23.21
2022-08-08T17:52:34.278Z,22.64
2022-08-08T17:55:05.042Z,23.02
2022-08-08T17:57:35.191Z,23.28
2022-08-08T18:00:04.638Z,23.31
2022-08-08T18:02:40.126Z,23.24
2022-08-08T18:05:14.659Z,23.32
2022-08-08T18:08:02.189Z,23.69
2022-08-08T18:10:31.410Z,23.95
2022-08-08T18:12:58.277Z,24.11
2022-08-08T18:15:25.240Z,24.95
2022-08-08T18:18:05.271Z,24.55
2022-08-08T18:20:52.215Z,25.00
2022-08-08T18:23:21.883Z,25.00
2022-08-08T18:25:50.402Z,25.42
2022-08-08T18:28:23.560Z,25.21
2022-08-08T18:30:52.350Z,25.62
2022-08-08T18:33:36.401Z,25.78
2022-08-08T18:36:11.545Z,26.47
2022-08-08T18:38:49.799Z,26.24
2022-08-08T18:41:16.350Z,26.43
2022-08-08T18:43:45.908Z,26.65
2022-08-08T18:46:57.098Z,27.00
2022-08-08T18:48:58.946Z,28.06
2022-08-08T18:51:53.281Z,28.29
2022-08-08T18:54:22.542Z,29.13
2022-08-08T18:56:53.817Z,29.07
2022-08-08T18:59:20.453Z,29.60
2022-08-08T19:02:27.956Z,30.91
2022-08-08T19:04:36.289Z,30.42
2022-08-08T19:07:03.877Z,31.35
2022-08-08T19:09:48.498Z,31.34
2022-08-08T19:12:16.688Z,31.75
2022-08-08T19:14:43.390Z,31.89
2022-08-08T19:17:11.006Z,32.53
2022-08-08T19:19:44.194Z,32.55
2022-08-08T19:22:26.056Z,32.63
2022-08-08T19:25:44.282Z,32.91
2022-08-08T19:27:57.089Z,32.86
2022-08-08T19:30:26.848Z,33.07
2022-08-08T19:32:54.004Z,33.36
2022-08-08T19:35:25.612Z,33.86
2022-08-08T19:38:11.192Z,33.93
2022-08-08T19:40:43.256Z,34.25
2022-08-08T19:43:11.961Z,33.82
2022-08-08T19:45:58.304Z,34.88
2022-08-08T19:48:28.731Z,35.21
2022-08-08T19:50:57.321Z,36.10
2022-08-08T19:53:53.239Z,36.08
2022-08-08T19:56:13.978Z,36.52
2022-08-08T19:58:43.553Z,36.36
2022-08-08T20:01:22.780Z,36.92
2022-08-08T20:04:02.376Z,37.60
2022-08-08T20:06:30.064Z,37.77
2022-08-08T20:08:56.917Z,37.40
2022-08-08T20:11:24.361Z,37.89
2022-08-08T20:14:31.927Z,38.22
2022-08-08T20:16:40.564Z,38.09
2022-08-08T20:19:08.742Z,38.45
2022-08-08T20:21:37.289Z,38.77
2022-08-08T20:24:07.939Z,39.02
2022-08-08T20:26:35.838Z,39.33
2022-08-08T20:29:06.520Z,39.13
2022-08-08T20:31:46.981Z,39.22
2022-08-08T20:34:29.015Z,39.69
2022-08-08T20:36:59.395Z,39.60
2022-08-08T20:39:26.994Z,39.83
2022-08-08T20:42:00.731Z,39.83
2022-08-08T20:44:27.398Z,40.02
2022-08-08T20:46:53.963Z,40.54
2022-08-08T20:49:21.894Z,40.40
2022-08-08T20:51:48.572Z,40.59
2022-08-08T20:54:26.348Z,40.73
2022-08-08T20:57:16.611Z,40.77
2022-08-08T20:59:41.825Z,40.24
2022-08-08T21:02:12.841Z,40.58
2022-08-08T21:04:43.579Z,40.77
2022-08-08T21:07:16.371Z,40.89
2022-08-08T21:10:01.692Z,40.89
2022-08-08T21:12:33.026Z,41.21
2022-08-08T21:15:07.209Z,41.87
2022-08-08T21:17:39.296Z,42.13
2022-08-08T21:20:07.561Z,41.92
2022-08-08T21:22:34.131Z,42.00
2022-08-08T21:25:00.800Z,42.00
2022-08-08T21:27:38.780Z,42.39
2022-08-08T21:30:18.610Z,42.88
2022-08-08T21:32:51.165Z,42.98
2022-08-08T21:36:14.950Z,42.85
2022-08-08T21:38:16.031Z,42.98
2022-08-08T21:40:56.256Z,42.67
2022-08-08T21:43:33.350Z,42.94
2022-08-08T21:48:07.087Z,43.03
2022-08-08T21:48:57.831Z,43.72
2022-08-08T21:54:23.307Z,44.00
2022-08-08T21:54:33.841Z,43.84
2022-08-08T21:57:02.880Z,43.93
2022-08-08T22:00:03.257Z,43.66
2022-08-08T22:02:19.401Z,43.75
2022-08-08T22:04:49.882Z,44.05
2022-08-08T22:07:17.969Z,43.90
2022-08-08T22:09:45.719Z,44.17
2022-08-08T22:12:16.886Z,44.55
2022-08-08T22:14:47.267Z,44.74
2022-08-08T22:17:19.378Z,44.90
2022-08-08T22:20:12.987Z,45.03
2022-08-08T22:22:37.965Z,45.16
2022-08-08T22:25:19.855Z,44.83
2022-08-08T22:28:04.493Z,45.22
2022-08-08T22:30:43.814Z,45.32
2022-08-08T22:33:22.266Z,45.72
2022-08-08T22:36:12.338Z,46.19
2022-08-08T22:38:48.182Z,45.90
2022-08-08T22:41:21.098Z,46.40
2022-08-08T22:44:01.903Z,46.37
2022-08-08T22:46:32.880Z,46.44
2022-08-08T22:48:59.526Z,46.47
2022-08-08T22:51:28.905Z,46.49
2022-08-08T22:54:30.866Z,46.81
2022-08-08T22:56:42.897Z,46.73
2022-08-08T22:59:14.189Z,46.69
2022-08-08T23:02:02.196Z,46.81
2022-08-08T23:04:31.833Z,46.75
2022-08-08T23:07:03.088Z,46.77
2022-08-08T23:09:30.993Z,47.11
2022-08-08T23:12:27.876Z,47.52
2022-08-08T23:14:56.043Z,47.84
2022-08-08T23:17:24.169Z,47.66
2022-08-08T23:19:56.827Z,47.58
2022-08-08T23:22:23.641Z,47.46
2022-08-08T23:24:50.716Z,47.83
2022-08-08T23:27:39.204Z,48.16
2022-08-08T23:30:06.041Z,48.58
2022-08-08T23:32:36.257Z,48.60
2022-08-08T23:35:12.420Z,48.45
2022-08-08T23:38:01.756Z,48.31
2022-08-08T23:40:30.193Z,48.66
2022-08-08T23:42:57.070Z,48.61
2022-08-08T23:49:07.123Z,48.73
2022-08-08T23:49:07.965Z,49.05
2022-08-08T23:50:58.109Z,48.69
2022-08-08T23:53:55.641Z,48.86
2022-08-08T23:56:12.092Z,49.03
2022-08-08T23:58:38.987Z,48.97
